sensor_id;sensor_type;location;lat;lon;timestamp;temperature;humidity
16674;DHT22;8450;52.654;10.326;2023-03-14T06:50:28;8.00;99.90
16674;DHT22;8450;52.654;10.326;2023-03-14T06:52:56;8.00;99.90
16674;DHT22;8450;52.654;10.326;2023-03-14T06:55:25;8.00;99.90
16674;DHT22;8450;52.654;10.326;2023-03-14T06:57:52;8.10;99.90
16674;DHT22;8450;52.654;10.326;2023-03-14T07:00:18;8.10;99.90
16674;DHT22;8450;52.654;10.326;2023-03-14T07:02:44;8.20;99.90
16674;DHT22;8450;52.654;10.326;2023-03-14T07:08:02;8.30;99.90
16674;DHT22;8450;52.654;10.326;2023-03-14T07:10:28;8.30;99.90
16674;DHT22;8450;52.654;10.326;2023-03-14T07:12:54;8.30;99.90
16674;DHT22;8450;52.654;10.326;2023-03-14T07:18:08;8.30;99.90
16674;DHT22;8450;52.654;10.326;2023-03-14T07:20:34;8.30;99.90
16674;DHT22;8450;52.654;10.326;2023-03-14T07:25:42;8.40;99.90
16674;DHT22;8450;52.654;10.326;2023-03-14T07:28:08;8.50;99.90
16674;DHT22;8450;52.654;10.326;2023-03-14T07:30:35;8.50;99.90
16674;DHT22;8450;52.654;10.326;2023-03-14T07:33:05;8.50;99.90
16674;DHT22;8450;52.654;10.326;2023-03-14T07:35:32;8.60;99.90
16674;DHT22;8450;52.654;10.326;2023-03-14T07:37:57;8.60;99.90
16674;DHT22;8450;52.654;10.326;2023-03-14T07:40:30;8.70;99.90
16674;DHT22;8450;52.654;10.326;2023-03-14T07:45:47;8.90;99.90
16674;DHT22;8450;52.654;10.326;2023-03-14T07:48:12;9.00;99.90
16674;DHT22;8450;52.654;10.326;2023-03-14T07:50:38;9.10;99.90
16674;DHT22;8450;52.654;10.326;2023-03-14T07:53:03;9.10;99.90
16674;DHT22;8450;52.654;10.326;2023-03-14T07:55:29;9.20;99.90
16674;DHT22;8450;52.654;10.326;2023-03-14T07:57:54;9.30;99.90
16674;DHT22;8450;52.654;10.326;2023-03-14T08:00:20;9.30;99.90
16674;DHT22;8450;52.654;10.326;2023-03-14T08:02:46;9.40;99.90
16674;DHT22;8450;52.654;10.326;2023-03-14T08:05:11;9.50;99.90
16674;DHT22;8450;52.654;10.326;2023-03-14T08:07:37;9.60;99.90
16674;DHT22;8450;52.654;10.326;2023-03-14T08:10:03;9.60;99.90
16674;DHT22;8450;52.654;10.326;2023-03-14T08:12:29;9.70;99.90
16674;DHT22;8450;52.654;10.326;2023-03-14T08:20:27;9.90;99.90
16674;DHT22;8450;52.654;10.326;2023-03-14T08:22:56;10.10;99.90
16674;DHT22;8450;52.654;10.326;2023-03-14T08:25:22;10.10;99.90
16674;DHT22;8450;52.654;10.326;2023-03-14T08:27:47;10.20;99.90
16674;DHT22;8450;52.654;10.326;2023-03-14T08:30:17;10.20;99.90
16674;DHT22;8450;52.654;10.326;2023-03-14T08:32:43;10.20;99.90
16674;DHT22;8450;52.654;10.326;2023-03-14T08:46:00;10.20;99.90
16674;DHT22;8450;52.654;10.326;2023-03-14T08:48:26;10.20;99.90
16674;DHT22;8450;52.654;10.326;2023-03-14T08:50:52;10.20;99.90
16674;DHT22;8450;52.654;10.326;2023-03-14T08:53:52;10.20;99.90
16674;DHT22;8450;52.654;10.326;2023-03-14T08:56:17;10.20;99.90
16674;DHT22;8450;52.654;10.326;2023-03-14T08:58:43;10.30;99.90
16674;DHT22;8450;52.654;10.326;2023-03-14T09:01:10;10.30;99.90
16674;DHT22;8450;52.654;10.326;2023-03-14T09:06:24;10.30;99.90
16674;DHT22;8450;52.654;10.326;2023-03-14T09:08:49;10.40;99.90
16674;DHT22;8450;52.654;10.326;2023-03-14T09:11:15;10.40;99.90
16674;DHT22;8450;52.654;10.326;2023-03-14T09:13:41;10.30;99.90
16674;DHT22;8450;52.654;10.326;2023-03-14T09:16:07;10.30;99.90
16674;DHT22;8450;52.654;10.326;2023-03-14T09:18:33;10.30;99.90
16674;DHT22;8450;52.654;10.326;2023-03-14T09:20:58;10.30;99.90
16674;DHT22;8450;52.654;10.326;2023-03-14T09:26:18;10.20;99.90
16674;DHT22;8450;52.654;10.326;2023-03-14T09:29:04;10.20;99.90
16674;DHT22;8450;52.654;10.326;2023-03-14T09:31:35;10.20;99.90
16674;DHT22;8450;52.654;10.326;2023-03-14T09:34:01;10.20;99.90
16674;DHT22;8450;52.654;10.326;2023-03-14T09:36:27;10.20;99.90
16674;DHT22;8450;52.654;10.326;2023-03-14T09:38:52;10.20;99.90
16674;DHT22;8450;52.654;10.326;2023-03-14T09:41:27;10.20;99.90
16674;DHT22;8450;52.654;10.326;2023-03-14T09:49:36;10.20;99.90
16674;DHT22;8450;52.654;10.326;2023-03-14T09:57:26;10.20;99.90
16674;DHT22;8450;52.654;10.326;2023-03-14T09:59:56;10.20;99.90
16674;DHT22;8450;52.654;10.326;2023-03-14T10:02:24;10.30;99.90
16674;DHT22;8450;52.654;10.326;2023-03-14T10:04:52;10.20;99.90
16674;DHT22;8450;52.654;10.326;2023-03-14T10:07:27;10.20;99.90
16674;DHT22;8450;52.654;10.326;2023-03-14T10:09:53;10.20;99.90
16674;DHT22;8450;52.654;10.326;2023-03-14T10:12:19;10.30;99.90
16674;DHT22;8450;52.654;10.326;2023-03-14T10:14:54;10.30;99.90
16674;DHT22;8450;52.654;10.326;2023-03-14T10:17:20;10.30;99.90
16674;DHT22;8450;52.654;10.326;2023-03-14T10:19:57;10.30;99.90
16674;DHT22;8450;52.654;10.326;2023-03-14T10:22:26;10.30;99.90
16674;DHT22;8450;52.654;10.326;2023-03-14T10:27:40;10.30;99.90
16674;DHT22;8450;52.654;10.326;2023-03-14T10:30:14;10.40;99.90
16674;DHT22;8450;52.654;10.326;2023-03-14T10:32:51;10.50;99.90
16674;DHT22;8450;52.654;10.326;2023-03-14T10:35:18;10.50;99.90
16674;DHT22;8450;52.654;10.326;2023-03-14T10:37:58;10.60;99.90
16674;DHT22;8450;52.654;10.326;2023-03-14T10:40:38;10.70;99.90
16674;DHT22;8450;52.654;10.326;2023-03-14T10:45:58;10.80;99.90
16674;DHT22;8450;52.654;10.326;2023-03-14T10:48:36;10.90;99.90
16674;DHT22;8450;52.654;10.326;2023-03-14T10:51:06;10.90;99.90
16674;DHT22;8450;52.654;10.326;2023-03-14T10:53:43;10.90;99.90
16674;DHT22;8450;52.654;10.326;2023-03-14T10:56:20;10.90;99.90
16674;DHT22;8450;52.654;10.326;2023-03-14T10:58:50;10.90;99.90
16674;DHT22;8450;52.654;10.326;2023-03-14T11:01:41;10.90;99.90
16674;DHT22;8450;52.654;10.326;2023-03-14T11:06:44;11.00;99.90
16674;DHT22;8450;52.654;10.326;2023-03-14T11:09:36;10.90;99.90
16674;DHT22;8450;52.654;10.326;2023-03-14T11:21:24;10.90;99.90
16674;DHT22;8450;52.654;10.326;2023-03-14T11:26:57;10.80;99.90
16674;DHT22;8450;52.654;10.326;2023-03-14T11:29:39;10.80;99.90
16674;DHT22;8450;52.654;10.326;2023-03-14T11:32:23;10.70;99.90
16674;DHT22;8450;52.654;10.326;2023-03-14T11:40:22;10.50;99.90
16674;DHT22;8450;52.654;10.326;2023-03-14T11:42:58;10.40;99.90
16674;DHT22;8450;52.654;10.326;2023-03-14T11:45:45;10.20;99.90
16674;DHT22;8450;52.654;10.326;2023-03-14T11:50:52;10.10;99.90
16674;DHT22;8450;52.654;10.326;2023-03-14T11:56:00;9.90;99.90
16674;DHT22;8450;52.654;10.326;2023-03-14T11:58:27;9.80;99.90
16674;DHT22;8450;52.654;10.326;2023-03-14T12:00:56;9.70;99.90
16674;DHT22;8450;52.654;10.326;2023-03-14T12:06:33;9.50;99.90
16674;DHT22;8450;52.654;10.326;2023-03-14T12:09:02;9.40;99.90
16674;DHT22;8450;52.654;10.326;2023-03-14T12:13:58;9.10;99.90
16674;DHT22;8450;52.654;10.326;2023-03-14T12:18:50;8.90;99.90
16674;DHT22;8450;52.654;10.326;2023-03-14T12:21:16;8.80;99.90
16674;DHT22;8450;52.654;10.326;2023-03-14T12:23:47;8.70;99.90
16674;DHT22;8450;52.654;10.326;2023-03-14T12:26:20;8.60;99.90
16674;DHT22;8450;52.654;10.326;2023-03-14T12:29:11;8.50;99.90
16674;DHT22;8450;52.654;10.326;2023-03-14T12:31:45;8.40;99.90
16674;DHT22;8450;52.654;10.326;2023-03-14T12:45:15;7.80;99.90
16674;DHT22;8450;52.654;10.326;2023-03-14T12:48:10;7.70;99.90
16674;DHT22;8450;52.654;10.326;2023-03-14T12:50:42;7.60;99.90
16674;DHT22;8450;52.654;10.326;2023-03-14T13:04:07;7.10;99.90
16674;DHT22;8450;52.654;10.326;2023-03-14T13:06:54;7.00;99.90
16674;DHT22;8450;52.654;10.326;2023-03-14T13:12:13;6.80;99.90
16674;DHT22;8450;52.654;10.326;2023-03-14T13:14:48;6.70;99.90
16674;DHT22;8450;52.654;10.326;2023-03-14T13:17:19;6.60;99.90
16674;DHT22;8450;52.654;10.326;2023-03-14T13:19:55;6.50;99.90
16674;DHT22;8450;52.654;10.326;2023-03-14T13:22:27;6.50;99.90
16674;DHT22;8450;52.654;10.326;2023-03-14T13:27:36;6.30;99.90
16674;DHT22;8450;52.654;10.326;2023-03-14T13:30:20;6.20;99.90
16674;DHT22;8450;52.654;10.326;2023-03-14T13:32:48;6.20;99.90
16674;DHT22;8450;52.654;10.326;2023-03-14T13:35:16;6.20;99.90
16674;DHT22;8450;52.654;10.326;2023-03-14T13:37:42;6.10;99.90
16674;DHT22;8450;52.654;10.326;2023-03-14T13:40:19;6.10;99.90
16674;DHT22;8450;52.654;10.326;2023-03-14T13:42:45;6.10;99.90
16674;DHT22;8450;52.654;10.326;2023-03-14T13:45:14;6.10;99.90
16674;DHT22;8450;52.654;10.326;2023-03-14T13:47:42;6.10;99.90
16674;DHT22;8450;52.654;10.326;2023-03-14T13:50:18;6.00;99.90
16674;DHT22;8450;52.654;10.326;2023-03-14T13:52:44;6.00;99.90
16674;DHT22;8450;52.654;10.326;2023-03-14T13:55:18;6.00;99.90
16674;DHT22;8450;52.654;10.326;2023-03-14T13:57:46;6.00;99.90
16674;DHT22;8450;52.654;10.326;2023-03-14T14:00:28;6.00;99.90
16674;DHT22;8450;52.654;10.326;2023-03-14T14:02:56;6.00;99.90
16674;DHT22;8450;52.654;10.326;2023-03-14T14:05:22;6.00;99.90
16674;DHT22;8450;52.654;10.326;2023-03-14T14:07:50;6.00;99.90
16674;DHT22;8450;52.654;10.326;2023-03-14T14:10:17;6.00;99.90
16674;DHT22;8450;52.654;10.326;2023-03-14T14:12:57;6.00;99.90
16674;DHT22;8450;52.654;10.326;2023-03-14T14:15:29;5.90;99.90
16674;DHT22;8450;52.654;10.326;2023-03-14T14:18:08;5.90;99.90
16674;DHT22;8450;52.654;10.326;2023-03-14T14:20:41;5.90;99.90
16674;DHT22;8450;52.654;10.326;2023-03-14T14:23:13;5.90;99.90
16674;DHT22;8450;52.654;10.326;2023-03-14T14:25:39;5.90;99.90
16674;DHT22;8450;52.654;10.326;2023-03-14T14:28:35;5.90;99.90
16674;DHT22;8450;52.654;10.326;2023-03-14T14:33:59;5.90;99.90
16674;DHT22;8450;52.654;10.326;2023-03-14T14:36:44;5.90;99.90
16674;DHT22;8450;52.654;10.326;2023-03-14T14:41:44;5.80;99.90
16674;DHT22;8450;52.654;10.326;2023-03-14T14:44:14;5.80;99.90
16674;DHT22;8450;52.654;10.326;2023-03-14T14:46:42;5.70;99.90
16674;DHT22;8450;52.654;10.326;2023-03-14T14:49:14;5.70;99.90
16674;DHT22;8450;52.654;10.326;2023-03-14T14:51:43;5.70;99.90
16674;DHT22;8450;52.654;10.326;2023-03-14T14:54:12;5.60;99.90
16674;DHT22;8450;52.654;10.326;2023-03-14T14:56:39;5.60;99.90
16674;DHT22;8450;52.654;10.326;2023-03-14T14:59:07;5.50;99.90
16674;DHT22;8450;52.654;10.326;2023-03-14T15:01:43;5.50;99.90
16674;DHT22;8450;52.654;10.326;2023-03-14T15:04:13;5.50;99.90
16674;DHT22;8450;52.654;10.326;2023-03-14T15:06:43;5.50;99.90
16674;DHT22;8450;52.654;10.326;2023-03-14T15:09:10;5.50;99.90
16674;DHT22;8450;52.654;10.326;2023-03-14T15:11:36;5.40;99.90
16674;DHT22;8450;52.654;10.326;2023-03-14T15:14:02;5.40;99.90
16674;DHT22;8450;52.654;10.326;2023-03-14T15:16:29;5.40;99.90
16674;DHT22;8450;52.654;10.326;2023-03-14T15:19:00;5.40;99.90
16674;DHT22;8450;52.654;10.326;2023-03-14T15:21:27;5.30;99.90
16674;DHT22;8450;52.654;10.326;2023-03-14T15:23:53;5.30;99.90
16674;DHT22;8450;52.654;10.326;2023-03-14T15:26:21;5.30;99.90
16674;DHT22;8450;52.654;10.326;2023-03-14T15:28:48;5.20;99.90
16674;DHT22;8450;52.654;10.326;2023-03-14T15:31:15;5.20;99.90
16674;DHT22;8450;52.654;10.326;2023-03-14T15:33:42;5.10;99.90
16674;DHT22;8450;52.654;10.326;2023-03-14T15:38:47;5.10;99.90
16674;DHT22;8450;52.654;10.326;2023-03-14T15:41:12;5.00;99.90
16674;DHT22;8450;52.654;10.326;2023-03-14T15:43:59;5.00;99.90
16674;DHT22;8450;52.654;10.326;2023-03-14T15:46:25;4.90;99.90
16674;DHT22;8450;52.654;10.326;2023-03-14T15:48:51;4.80;99.90
16674;DHT22;8450;52.654;10.326;2023-03-14T15:51:18;4.80;99.90
16674;DHT22;8450;52.654;10.326;2023-03-14T15:53:44;4.80;99.90
16674;DHT22;8450;52.654;10.326;2023-03-14T15:56:15;4.70;99.90
16674;DHT22;8450;52.654;10.326;2023-03-14T15:58:41;4.70;99.90
16674;DHT22;8450;52.654;10.326;2023-03-14T16:01:09;4.70;99.90
16674;DHT22;8450;52.654;10.326;2023-03-14T16:03:35;4.60;99.90
16674;DHT22;8450;52.654;10.326;2023-03-14T16:06:01;4.70;99.90
16674;DHT22;8450;52.654;10.326;2023-03-14T16:08:27;4.60;99.90
16674;DHT22;8450;52.654;10.326;2023-03-14T16:10:55;4.60;99.90
16674;DHT22;8450;52.654;10.326;2023-03-14T16:18:42;4.60;99.90
16674;DHT22;8450;52.654;10.326;2023-03-14T16:21:12;4.60;99.90
16674;DHT22;8450;52.654;10.326;2023-03-14T16:23:43;4.50;99.90
16674;DHT22;8450;52.654;10.326;2023-03-14T16:26:12;4.50;99.90
16674;DHT22;8450;52.654;10.326;2023-03-14T16:28:40;4.40;99.90
16674;DHT22;8450;52.654;10.326;2023-03-14T16:31:10;4.40;99.90
